Time;durP1;ratioP1;P1;durP2;ratioP2;P2;SDS_P1;SDS_P2;PMS_P1;PMS_P2;Temp;Humidity;BMP_temperature;BMP_pressure;BME280_temperature;BME280_humidity;BME280_pressure;Samples;Min_cycle;Max_cycle;Signal;HPM_P1;HPM_P2
2023/04/10 00:03:42;;;;;;;32.55;7.82;;;;;;;;;;20840406;28;20458;-64
2023/04/10 00:13:44;;;;;;;27.35;6.28;;;;;;;;;;20840945;28;20046;-63
2023/04/10 00:23:46;;;;;;;31.23;6.70;;;;;;;;;;20838927;28;20107;-63
2023/04/10 00:33:47;;;;;;;35.72;6.82;;;;;;;;;;20839533;28;20057;-63
2023/04/10 00:43:49;;;;;;;34.75;7.00;;;;;;;;;;20838480;28;20053;-62
2023/04/10 00:53:51;;;;;;;32.75;6.57;;;;;;;;;;20836513;28;20049;-63
2023/04/10 01:03:53;;;;;;;34.22;7.22;;;;;;;;;;20836897;28;20053;-63
2023/04/10 01:14:01;;;;;;;35.97;7.05;;;;;;;;;;20835037;28;20049;-62
2023/04/10 01:24:21;;;;;;;28.50;6.68;;;;;;;;;;20834051;28;20057;-63
2023/04/10 01:34:24;;;;;;;32.83;6.53;;;;;;;;;;20834776;28;20491;-63
2023/04/10 01:44:28;;;;;;;26.50;6.32;;;;;;;;;;20833383;28;20409;-63
2023/04/10 01:54:32;;;;;;;33.53;6.90;;;;;;;;;;20831873;28;20045;-63
2023/04/10 02:04:33;;;;;;;34.70;6.05;;;;;;;;;;20832197;28;20053;-62
2023/04/10 02:14:41;;;;;;;38.65;7.70;;;;;;;;;;20830648;28;20155;-62
2023/04/10 02:24:43;;;;;;;36.60;7.40;;;;;;;;;;20831587;28;20450;-62
2023/04/10 02:34:45;;;;;;;31.88;6.80;;;;;;;;;;20829932;28;20057;-62
2023/04/10 02:44:47;;;;;;;28.92;6.55;;;;;;;;;;20830623;28;20054;-63
2023/04/10 02:54:49;;;;;;;28.83;6.22;;;;;;;;;;20830509;28;20041;-62
2023/04/10 03:04:52;;;;;;;26.85;5.97;;;;;;;;;;20830236;28;20046;-63
2023/04/10 03:14:54;;;;;;;28.65;6.60;;;;;;;;;;20839187;28;20049;-62
2023/04/10 03:24:56;;;;;;;33.85;5.72;;;;;;;;;;20843239;28;20058;-64
2023/04/10 03:34:58;;;;;;;28.83;5.75;;;;;;;;;;20842315;28;20060;-63
2023/04/10 03:45:03;;;;;;;37.40;7.28;;;;;;;;;;20843043;28;20045;-62
2023/04/10 03:55:05;;;;;;;33.55;6.70;;;;;;;;;;20842479;28;20056;-63
2023/04/10 04:05:07;;;;;;;31.33;6.20;;;;;;;;;;20841655;28;20041;-63
2023/04/10 04:15:09;;;;;;;31.80;6.38;;;;;;;;;;20840855;28;20507;-63
2023/04/10 04:25:11;;;;;;;26.80;6.80;;;;;;;;;;20839586;28;20057;-62
2023/04/10 04:35:12;;;;;;;35.15;6.82;;;;;;;;;;20839512;28;20053;-62
2023/04/10 04:45:14;;;;;;;32.17;5.30;;;;;;;;;;20838398;28;20438;-62
2023/04/10 04:55:16;;;;;;;38.45;6.30;;;;;;;;;;20837797;28;20060;-62
2023/04/10 05:05:18;;;;;;;39.15;6.05;;;;;;;;;;20835702;28;20052;-63
2023/04/10 05:15:19;;;;;;;33.38;6.63;;;;;;;;;;20835603;28;20084;-61
2023/04/10 05:25:21;;;;;;;40.08;6.72;;;;;;;;;;20835364;28;20541;-63
2023/04/10 05:35:23;;;;;;;32.75;6.78;;;;;;;;;;20834194;28;20053;-62
2023/04/10 05:45:27;;;;;;;48.28;12.57;;;;;;;;;;20833780;28;20219;-62
2023/04/10 05:55:30;;;;;;;38.58;7.45;;;;;;;;;;20832893;28;20058;-63
2023/04/10 06:05:32;;;;;;;42.08;7.35;;;;;;;;;;20832374;28;20463;-62
2023/04/10 06:15:34;;;;;;;40.28;7.43;;;;;;;;;;20830701;28;20060;-62
2023/04/10 06:25:37;;;;;;;39.92;6.68;;;;;;;;;;20829940;28;20092;-62
2023/04/10 06:35:39;;;;;;;28.48;6.90;;;;;;;;;;20830565;28;20156;-62
2023/04/10 06:45:41;;;;;;;34.63;7.70;;;;;;;;;;20835779;28;20076;-63
2023/04/10 06:55:42;;;;;;;41.65;6.95;;;;;;;;;;20846028;28;20049;-63
2023/04/10 07:05:44;;;;;;;42.72;6.93;;;;;;;;;;20844994;28;20108;-63
2023/04/10 07:15:46;;;;;;;37.28;6.28;;;;;;;;;;20844744;28;20123;-63
2023/04/10 07:25:47;;;;;;;35.17;7.13;;;;;;;;;;20843471;28;20049;-62
2023/04/10 07:35:49;;;;;;;42.55;7.60;;;;;;;;;;20843764;28;20042;-64
2023/04/10 07:45:51;;;;;;;32.60;7.18;;;;;;;;;;20843057;28;20046;-63
2023/04/10 07:55:53;;;;;;;42.30;8.35;;;;;;;;;;20841460;28;20064;-63
2023/04/10 08:05:54;;;;;;;44.35;8.25;;;;;;;;;;20841161;28;20045;-63
2023/04/10 08:15:56;;;;;;;42.97;7.53;;;;;;;;;;20839661;28;20526;-61
2023/04/10 08:25:57;;;;;;;52.22;7.35;;;;;;;;;;20840090;28;20049;-63
2023/04/10 08:35:59;;;;;;;48.03;8.13;;;;;;;;;;20839315;28;20498;-63
2023/04/10 08:46:01;;;;;;;40.25;9.05;;;;;;;;;;20837190;28;20127;-62
2023/04/10 08:56:03;;;;;;;47.63;9.32;;;;;;;;;;20837861;28;20056;-62
2023/04/10 09:06:05;;;;;;;48.40;8.85;;;;;;;;;;20834755;28;20513;-63
2023/04/10 09:16:08;;;;;;;48.80;9.70;;;;;;;;;;20834084;28;20064;-64
2023/04/10 09:26:23;;;;;;;53.50;8.40;;;;;;;;;;20834597;28;20053;-64
2023/04/10 09:36:25;;;;;;;47.45;8.68;;;;;;;;;;20834048;28;20479;-64
2023/04/10 09:46:27;;;;;;;44.38;8.90;;;;;;;;;;20833079;28;20088;-63
2023/04/10 09:56:30;;;;;;;53.13;10.35;;;;;;;;;;20832794;28;20060;-62
2023/04/10 10:06:32;;;;;;;34.42;7.68;;;;;;;;;;20831811;28;20049;-63
2023/04/10 10:16:37;;;;;;;40.72;8.18;;;;;;;;;;20830806;28;20061;-63
2023/04/10 10:26:39;;;;;;;34.33;8.10;;;;;;;;;;20831002;28;20046;-63
2023/04/10 10:36:41;;;;;;;42.42;8.85;;;;;;;;;;20829273;28;20139;-64
2023/04/10 10:46:46;;;;;;;28.40;6.45;;;;;;;;;;20830563;28;20053;-64
2023/04/10 10:56:48;;;;;;;31.95;7.18;;;;;;;;;;20829341;28;20061;-64
2023/04/10 11:06:51;;;;;;;32.88;6.95;;;;;;;;;;20830100;28;20407;-66
2023/04/10 11:16:52;;;;;;;40.90;10.10;;;;;;;;;;20828917;28;20049;-64
2023/04/10 11:26:55;;;;;;;33.83;7.28;;;;;;;;;;20829475;28;20402;-64
2023/04/10 11:36:57;;;;;;;38.50;7.47;;;;;;;;;;20839797;28;20053;-64
2023/04/10 11:46:59;;;;;;;27.85;5.55;;;;;;;;;;20843160;28;20107;-64
2023/04/10 11:57:13;;;;;;;37.40;6.18;;;;;;;;;;20839901;28;20050;-64
2023/04/10 12:07:15;;;;;;;35.55;6.18;;;;;;;;;;20839935;28;20049;-64
2023/04/10 12:17:17;;;;;;;24.40;5.15;;;;;;;;;;20838523;28;20065;-64
2023/04/10 12:27:22;;;;;;;22.85;4.97;;;;;;;;;;20837772;28;20406;-64
2023/04/10 12:37:24;;;;;;;28.70;6.35;;;;;;;;;;20838624;28;20103;-64
2023/04/10 12:47:28;;;;;;;20.40;4.50;;;;;;;;;;20836714;28;20058;-64
2023/04/10 12:57:30;;;;;;;18.92;3.58;;;;;;;;;;20837431;28;20149;-63
2023/04/10 13:07:32;;;;;;;20.63;4.13;;;;;;;;;;20836716;28;20056;-63
2023/04/10 13:17:34;;;;;;;26.90;3.95;;;;;;;;;;20834229;28;20057;-63
2023/04/10 13:27:36;;;;;;;11.43;3.20;;;;;;;;;;20835398;28;20380;-63
2023/04/10 13:37:37;;;;;;;22.83;3.70;;;;;;;;;;20834520;28;20045;-63
2023/04/10 13:47:40;;;;;;;15.77;3.30;;;;;;;;;;20832460;28;20065;-63
2023/04/10 13:57:41;;;;;;;15.73;2.80;;;;;;;;;;20832439;28;20513;-63
2023/04/10 14:07:43;;;;;;;12.23;3.22;;;;;;;;;;20832553;28;20449;-63
2023/04/10 14:17:45;;;;;;;16.20;3.17;;;;;;;;;;20831475;28;20115;-64
2023/04/10 14:27:47;;;;;;;12.85;2.58;;;;;;;;;;20831816;28;20053;-65
2023/04/10 14:37:48;;;;;;;12.65;2.45;;;;;;;;;;20830348;28;20049;-64
2023/04/10 14:47:50;;;;;;;13.50;1.73;;;;;;;;;;20829478;28;20046;-64
2023/04/10 14:57:52;;;;;;;7.85;1.92;;;;;;;;;;20828660;28;20064;-64
2023/04/10 15:07:54;;;;;;;8.73;2.22;;;;;;;;;;20834548;28;20086;-64
2023/04/10 15:17:56;;;;;;;8.05;2.10;;;;;;;;;;20844612;28;20060;-64
2023/04/10 15:27:58;;;;;;;4.05;1.27;;;;;;;;;;20843293;28;20061;-64
2023/04/10 15:37:59;;;;;;;5.63;1.02;;;;;;;;;;20843987;28;20490;-64
2023/04/10 15:48:03;;;;;;;7.95;1.40;;;;;;;;;;20843155;28;20099;-64
2023/04/10 15:58:04;;;;;;;7.70;0.90;;;;;;;;;;20842662;28;20049;-64
2023/04/10 16:08:06;;;;;;;4.35;0.98;;;;;;;;;;20841416;28;20052;-64
2023/04/10 16:18:08;;;;;;;6.18;1.38;;;;;;;;;;20840434;28;20069;-67
2023/04/10 16:28:10;;;;;;;5.72;1.95;;;;;;;;;;20838507;28;20049;-65
2023/04/10 16:38:11;;;;;;;6.65;1.33;;;;;;;;;;20839569;28;20046;-67
2023/04/10 16:48:13;;;;;;;4.97;1.13;;;;;;;;;;20837062;28;20103;-62
2023/04/10 16:58:15;;;;;;;7.82;3.20;;;;;;;;;;20837460;28;20053;-59
2023/04/10 17:08:17;;;;;;;9.18;2.88;;;;;;;;;;20836694;28;20045;-63
2023/04/10 17:18:20;;;;;;;5.53;3.10;;;;;;;;;;20835669;28;20056;-62
2023/04/10 17:28:22;;;;;;;13.40;5.88;;;;;;;;;;20834465;28;20076;-62
2023/04/10 17:38:24;;;;;;;5.88;1.50;;;;;;;;;;20832954;28;20050;-61
2023/04/10 17:48:26;;;;;;;5.70;1.05;;;;;;;;;;20833977;28;20049;-61
2023/04/10 17:58:27;;;;;;;4.28;0.82;;;;;;;;;;20832877;28;20103;-62
2023/04/10 18:08:30;;;;;;;2.28;0.88;;;;;;;;;;20830620;28;20053;-64
2023/04/10 18:18:33;;;;;;;7.47;2.03;;;;;;;;;;20830835;28;20049;-64
2023/04/10 18:28:36;;;;;;;4.35;1.50;;;;;;;;;;20830876;28;20072;-58
2023/04/10 18:38:41;;;;;;;5.20;2.45;;;;;;;;;;20830553;28;20057;-63
2023/04/10 18:48:43;;;;;;;3.30;0.90;;;;;;;;;;20848293;28;20049;-70
2023/04/10 18:58:45;;;;;;;4.35;1.02;;;;;;;;;;20846502;28;20376;-68
2023/04/10 19:08:47;;;;;;;3.10;1.17;;;;;;;;;;20844168;28;20076;-67
2023/04/10 19:18:48;;;;;;;5.45;1.20;;;;;;;;;;20843884;28;20061;-66
2023/04/10 19:28:50;;;;;;;3.67;1.33;;;;;;;;;;20842236;28;20046;-66
2023/04/10 19:38:52;;;;;;;3.40;1.65;;;;;;;;;;20842827;28;20057;-66
2023/04/10 19:48:54;;;;;;;7.38;3.78;;;;;;;;;;20842610;28;20388;-66
2023/04/10 19:58:56;;;;;;;6.85;1.55;;;;;;;;;;20840707;28;20478;-66
2023/04/10 20:08:57;;;;;;;8.65;2.45;;;;;;;;;;20839770;28;20045;-66
2023/04/10 20:18:59;;;;;;;2.55;1.40;;;;;;;;;;20839283;28;20510;-64
2023/04/10 20:29:01;;;;;;;5.20;1.25;;;;;;;;;;20839464;28;20046;-64
2023/04/10 20:39:03;;;;;;;4.15;1.20;;;;;;;;;;20838656;28;20482;-64
2023/04/10 20:49:05;;;;;;;2.85;1.13;;;;;;;;;;20838017;28;20049;-64
2023/04/10 20:59:06;;;;;;;6.18;2.25;;;;;;;;;;20837259;28;20057;-64
2023/04/10 21:09:08;;;;;;;4.05;1.00;;;;;;;;;;20836553;28;20432;-65
2023/04/10 21:19:10;;;;;;;3.58;1.02;;;;;;;;;;20834439;28;20056;-64
2023/04/10 21:29:12;;;;;;;4.00;0.82;;;;;;;;;;20834367;28;20049;-64
2023/04/10 21:39:14;;;;;;;3.22;0.80;;;;;;;;;;20833508;28;20478;-64
2023/04/10 21:49:15;;;;;;;2.22;0.90;;;;;;;;;;20832775;28;20053;-64
2023/04/10 21:59:17;;;;;;;1.70;0.40;;;;;;;;;;20831947;28;20049;-65
2023/04/10 22:09:19;;;;;;;2.58;1.10;;;;;;;;;;20831663;28;20053;-64
2023/04/10 22:19:21;;;;;;;3.85;1.23;;;;;;;;;;20831203;28;20045;-64
2023/04/10 22:29:23;;;;;;;4.72;1.08;;;;;;;;;;20831567;28;20049;-64
2023/04/10 22:39:25;;;;;;;2.30;0.70;;;;;;;;;;20830667;28;20119;-64
2023/04/10 22:49:26;;;;;;;6.35;0.73;;;;;;;;;;20828787;28;20061;-64
2023/04/10 22:59:28;;;;;;;3.20;0.95;;;;;;;;;;20829991;28;20065;-64
2023/04/10 23:09:30;;;;;;;2.58;0.60;;;;;;;;;;20829483;28;20125;-64
2023/04/10 23:19:32;;;;;;;2.03;0.70;;;;;;;;;;20829100;28;20151;-64
2023/04/10 23:29:34;;;;;;;2.85;1.48;;;;;;;;;;20834481;28;20069;-63
2023/04/10 23:39:36;;;;;;;2.50;0.90;;;;;;;;;;20844577;28;20056;-63
2023/04/10 23:49:38;;;;;;;2.33;0.80;;;;;;;;;;20842323;28;20065;-64
2023/04/10 23:59:40;;;;;;;3.63;1.00;;;;;;;;;;20841593;28;20053;-64
